sensor_id;sensor_type;location;lat;lon;timestamp;P1;durP1;ratioP1;P2;durP2;ratioP2
47259;SDS011;32999;52.412;4.890;2023-11-21T00:04:01;13.18;;;5.40;;
47259;SDS011;32999;52.412;4.890;2023-11-21T00:09:03;20.38;;;5.95;;
47259;SDS011;32999;52.412;4.890;2023-11-21T00:14:06;17.00;;;5.50;;
47259;SDS011;32999;52.412;4.890;2023-11-21T00:19:08;15.82;;;5.80;;
47259;SDS011;32999;52.412;4.890;2023-11-21T00:24:09;22.70;;;7.53;;
47259;SDS011;32999;52.412;4.890;2023-11-21T00:29:15;18.10;;;5.73;;
47259;SDS011;32999;52.412;4.890;2023-11-21T00:34:17;20.90;;;6.20;;
47259;SDS011;32999;52.412;4.890;2023-11-21T00:39:19;14.80;;;5.40;;
47259;SDS011;32999;52.412;4.890;2023-11-21T00:44:22;13.40;;;5.47;;
47259;SDS011;32999;52.412;4.890;2023-11-21T00:49:24;13.32;;;5.63;;
47259;SDS011;32999;52.412;4.890;2023-11-21T00:54:26;18.02;;;5.28;;
47259;SDS011;32999;52.412;4.890;2023-11-21T00:59:29;13.40;;;5.07;;
47259;SDS011;32999;52.412;4.890;2023-11-21T01:04:30;12.75;;;6.00;;
47259;SDS011;32999;52.412;4.890;2023-11-21T01:09:32;14.63;;;5.13;;
47259;SDS011;32999;52.412;4.890;2023-11-21T01:14:35;13.13;;;4.60;;
47259;SDS011;32999;52.412;4.890;2023-11-21T01:19:37;13.88;;;4.90;;
47259;SDS011;32999;52.412;4.890;2023-11-21T01:24:39;16.92;;;5.28;;
47259;SDS011;32999;52.412;4.890;2023-11-21T01:29:41;12.90;;;5.22;;
47259;SDS011;32999;52.412;4.890;2023-11-21T01:34:43;16.88;;;5.50;;
47259;SDS011;32999;52.412;4.890;2023-11-21T01:39:44;13.55;;;6.20;;
47259;SDS011;32999;52.412;4.890;2023-11-21T01:44:48;16.95;;;5.43;;
47259;SDS011;32999;52.412;4.890;2023-11-21T01:49:49;16.73;;;5.88;;
47259;SDS011;32999;52.412;4.890;2023-11-21T01:54:51;16.98;;;5.00;;
47259;SDS011;32999;52.412;4.890;2023-11-21T01:59:55;24.75;;;6.35;;
47259;SDS011;32999;52.412;4.890;2023-11-21T02:04:57;20.00;;;5.23;;
47259;SDS011;32999;52.412;4.890;2023-11-21T02:09:58;18.38;;;6.90;;
47259;SDS011;32999;52.412;4.890;2023-11-21T02:15:01;17.15;;;4.72;;
47259;SDS011;32999;52.412;4.890;2023-11-21T02:20:05;18.90;;;5.75;;
47259;SDS011;32999;52.412;4.890;2023-11-21T02:25:08;12.43;;;4.95;;
47259;SDS011;32999;52.412;4.890;2023-11-21T02:30:10;19.45;;;5.68;;
47259;SDS011;32999;52.412;4.890;2023-11-21T02:35:13;18.38;;;5.45;;
47259;SDS011;32999;52.412;4.890;2023-11-21T02:40:17;23.00;;;7.03;;
47259;SDS011;32999;52.412;4.890;2023-11-21T02:45:20;16.90;;;4.78;;
47259;SDS011;32999;52.412;4.890;2023-11-21T02:50:22;13.77;;;5.72;;
47259;SDS011;32999;52.412;4.890;2023-11-21T02:55:25;13.63;;;5.95;;
47259;SDS011;32999;52.412;4.890;2023-11-21T03:00:26;20.83;;;7.32;;
47259;SDS011;32999;52.412;4.890;2023-11-21T03:05:28;21.25;;;7.03;;
47259;SDS011;32999;52.412;4.890;2023-11-21T03:10:31;19.40;;;7.05;;
47259;SDS011;32999;52.412;4.890;2023-11-21T03:15:33;16.35;;;5.88;;
47259;SDS011;32999;52.412;4.890;2023-11-21T03:20:35;11.48;;;5.57;;
47259;SDS011;32999;52.412;4.890;2023-11-21T03:25:38;13.70;;;5.30;;
47259;SDS011;32999;52.412;4.890;2023-11-21T03:30:40;8.90;;;4.27;;
47259;SDS011;32999;52.412;4.890;2023-11-21T03:35:42;7.95;;;3.75;;
47259;SDS011;32999;52.412;4.890;2023-11-21T03:40:46;13.20;;;4.88;;
47259;SDS011;32999;52.412;4.890;2023-11-21T03:45:48;8.82;;;3.22;;
47259;SDS011;32999;52.412;4.890;2023-11-21T03:50:49;10.63;;;2.78;;
47259;SDS011;32999;52.412;4.890;2023-11-21T03:55:52;12.27;;;4.78;;
47259;SDS011;32999;52.412;4.890;2023-11-21T04:00:53;9.38;;;3.00;;
47259;SDS011;32999;52.412;4.890;2023-11-21T04:05:55;9.00;;;3.50;;
47259;SDS011;32999;52.412;4.890;2023-11-21T04:10:58;11.63;;;4.13;;
47259;SDS011;32999;52.412;4.890;2023-11-21T04:16:01;12.18;;;4.03;;
47259;SDS011;32999;52.412;4.890;2023-11-21T04:21:03;9.82;;;3.25;;
47259;SDS011;32999;52.412;4.890;2023-11-21T04:26:06;10.13;;;3.42;;
47259;SDS011;32999;52.412;4.890;2023-11-21T04:31:07;9.23;;;3.55;;
47259;SDS011;32999;52.412;4.890;2023-11-21T04:36:09;12.65;;;3.55;;
47259;SDS011;32999;52.412;4.890;2023-11-21T04:41:12;10.73;;;3.90;;
47259;SDS011;32999;52.412;4.890;2023-11-21T04:46:13;12.35;;;4.32;;
47259;SDS011;32999;52.412;4.890;2023-11-21T04:51:14;7.97;;;3.67;;
47259;SDS011;32999;52.412;4.890;2023-11-21T04:56:17;10.30;;;3.80;;
47259;SDS011;32999;52.412;4.890;2023-11-21T05:01:19;7.55;;;3.20;;
47259;SDS011;32999;52.412;4.890;2023-11-21T05:06:21;9.57;;;2.90;;
47259;SDS011;32999;52.412;4.890;2023-11-21T05:11:25;4.13;;;1.90;;
47259;SDS011;32999;52.412;4.890;2023-11-21T05:16:27;11.32;;;2.50;;
47259;SDS011;32999;52.412;4.890;2023-11-21T05:21:28;3.92;;;1.80;;
47259;SDS011;32999;52.412;4.890;2023-11-21T05:26:32;6.95;;;2.00;;
47259;SDS011;32999;52.412;4.890;2023-11-21T05:31:34;8.23;;;2.45;;
47259;SDS011;32999;52.412;4.890;2023-11-21T05:36:35;6.47;;;2.58;;
47259;SDS011;32999;52.412;4.890;2023-11-21T05:41:38;12.50;;;3.42;;
47259;SDS011;32999;52.412;4.890;2023-11-21T05:46:40;7.85;;;2.40;;
47259;SDS011;32999;52.412;4.890;2023-11-21T05:51:43;8.88;;;3.00;;
47259;SDS011;32999;52.412;4.890;2023-11-21T05:56:46;15.40;;;2.72;;
47259;SDS011;32999;52.412;4.890;2023-11-21T06:01:48;6.57;;;2.30;;
47259;SDS011;32999;52.412;4.890;2023-11-21T06:06:50;9.15;;;2.38;;
47259;SDS011;32999;52.412;4.890;2023-11-21T06:11:53;8.18;;;2.28;;
47259;SDS011;32999;52.412;4.890;2023-11-21T06:16:57;9.00;;;2.28;;
47259;SDS011;32999;52.412;4.890;2023-11-21T06:21:58;4.60;;;2.25;;
47259;SDS011;32999;52.412;4.890;2023-11-21T06:27:04;8.80;;;2.70;;
47259;SDS011;32999;52.412;4.890;2023-11-21T06:32:06;8.70;;;3.90;;
47259;SDS011;32999;52.412;4.890;2023-11-21T06:37:07;7.20;;;3.05;;
47259;SDS011;32999;52.412;4.890;2023-11-21T06:42:10;10.20;;;3.53;;
47259;SDS011;32999;52.412;4.890;2023-11-21T06:47:11;9.02;;;3.28;;
47259;SDS011;32999;52.412;4.890;2023-11-21T06:52:13;8.75;;;3.33;;
47259;SDS011;32999;52.412;4.890;2023-11-21T06:57:16;10.60;;;4.13;;
47259;SDS011;32999;52.412;4.890;2023-11-21T07:02:18;14.00;;;4.22;;
47259;SDS011;32999;52.412;4.890;2023-11-21T07:07:19;13.63;;;4.97;;
47259;SDS011;32999;52.412;4.890;2023-11-21T07:12:22;14.63;;;5.22;;
47259;SDS011;32999;52.412;4.890;2023-11-21T07:17:25;17.23;;;4.88;;
47259;SDS011;32999;52.412;4.890;2023-11-21T07:22:27;17.95;;;5.38;;
47259;SDS011;32999;52.412;4.890;2023-11-21T07:27:30;16.88;;;5.90;;
47259;SDS011;32999;52.412;4.890;2023-11-21T07:32:34;15.32;;;5.70;;
47259;SDS011;32999;52.412;4.890;2023-11-21T07:37:35;13.48;;;5.65;;
47259;SDS011;32999;52.412;4.890;2023-11-21T07:42:38;18.10;;;6.35;;
47259;SDS011;32999;52.412;4.890;2023-11-21T07:47:39;18.25;;;6.18;;
47259;SDS011;32999;52.412;4.890;2023-11-21T07:52:41;16.48;;;5.80;;
47259;SDS011;32999;52.412;4.890;2023-11-21T07:57:44;12.60;;;5.18;;
47259;SDS011;32999;52.412;4.890;2023-11-21T08:02:45;14.32;;;5.97;;
47259;SDS011;32999;52.412;4.890;2023-11-21T08:07:47;13.05;;;5.22;;
47259;SDS011;32999;52.412;4.890;2023-11-21T08:12:49;18.08;;;6.00;;
47259;SDS011;32999;52.412;4.890;2023-11-21T08:17:51;13.25;;;5.03;;
47259;SDS011;32999;52.412;4.890;2023-11-21T08:22:52;13.38;;;5.30;;
47259;SDS011;32999;52.412;4.890;2023-11-21T08:27:58;17.13;;;5.90;;
47259;SDS011;32999;52.412;4.890;2023-11-21T08:32:59;14.00;;;5.57;;
47259;SDS011;32999;52.412;4.890;2023-11-21T08:38:01;12.70;;;5.60;;
47259;SDS011;32999;52.412;4.890;2023-11-21T08:43:03;12.55;;;5.43;;
47259;SDS011;32999;52.412;4.890;2023-11-21T08:48:05;15.57;;;6.15;;
47259;SDS011;32999;52.412;4.890;2023-11-21T08:53:07;16.58;;;6.53;;
47259;SDS011;32999;52.412;4.890;2023-11-21T08:58:10;14.85;;;6.68;;
47259;SDS011;32999;52.412;4.890;2023-11-21T09:03:12;18.50;;;7.00;;
47259;SDS011;32999;52.412;4.890;2023-11-21T09:08:13;19.92;;;8.10;;
47259;SDS011;32999;52.412;4.890;2023-11-21T09:13:17;18.77;;;7.13;;
47259;SDS011;32999;52.412;4.890;2023-11-21T09:18:18;21.77;;;8.50;;
47259;SDS011;32999;52.412;4.890;2023-11-21T09:23:20;17.25;;;8.52;;
47259;SDS011;32999;52.412;4.890;2023-11-21T09:28:23;20.20;;;8.05;;
47259;SDS011;32999;52.412;4.890;2023-11-21T09:33:24;22.17;;;8.52;;
47259;SDS011;32999;52.412;4.890;2023-11-21T09:38:26;19.38;;;7.50;;
47259;SDS011;32999;52.412;4.890;2023-11-21T09:43:30;20.40;;;6.97;;
47259;SDS011;32999;52.412;4.890;2023-11-21T09:48:31;14.65;;;6.75;;
47259;SDS011;32999;52.412;4.890;2023-11-21T09:53:34;17.83;;;6.97;;
47259;SDS011;32999;52.412;4.890;2023-11-21T09:58:37;16.63;;;6.78;;
47259;SDS011;32999;52.412;4.890;2023-11-21T10:03:39;14.77;;;6.85;;
47259;SDS011;32999;52.412;4.890;2023-11-21T10:08:42;16.90;;;6.68;;
47259;SDS011;32999;52.412;4.890;2023-11-21T10:13:45;18.80;;;8.20;;
47259;SDS011;32999;52.412;4.890;2023-11-21T10:18:48;17.73;;;7.40;;
47259;SDS011;32999;52.412;4.890;2023-11-21T10:23:52;17.77;;;7.10;;
47259;SDS011;32999;52.412;4.890;2023-11-21T10:28:56;14.95;;;6.28;;
47259;SDS011;32999;52.412;4.890;2023-11-21T10:34:11;9.30;;;4.10;;
47259;SDS011;32999;52.412;4.890;2023-11-21T10:39:13;12.10;;;5.63;;
47259;SDS011;32999;52.412;4.890;2023-11-21T10:44:18;11.20;;;5.35;;
47259;SDS011;32999;52.412;4.890;2023-11-21T10:49:21;11.20;;;5.27;;
47259;SDS011;32999;52.412;4.890;2023-11-21T10:54:24;10.60;;;5.53;;
47259;SDS011;32999;52.412;4.890;2023-11-21T10:59:29;11.15;;;5.65;;
47259;SDS011;32999;52.412;4.890;2023-11-21T11:04:31;11.60;;;5.82;;
47259;SDS011;32999;52.412;4.890;2023-11-21T11:09:32;10.40;;;5.55;;
47259;SDS011;32999;52.412;4.890;2023-11-21T11:14:36;12.45;;;6.13;;
47259;SDS011;32999;52.412;4.890;2023-11-21T11:19:37;9.75;;;5.68;;
47259;SDS011;32999;52.412;4.890;2023-11-21T11:24:44;10.00;;;5.43;;
47259;SDS011;32999;52.412;4.890;2023-11-21T11:29:52;10.48;;;5.72;;
47259;SDS011;32999;52.412;4.890;2023-11-21T11:34:57;10.18;;;5.00;;
47259;SDS011;32999;52.412;4.890;2023-11-21T11:40:05;8.20;;;4.82;;
47259;SDS011;32999;52.412;4.890;2023-11-21T11:45:18;6.85;;;4.43;;
47259;SDS011;32999;52.412;4.890;2023-11-21T11:50:20;9.90;;;4.53;;
47259;SDS011;32999;52.412;4.890;2023-11-21T11:55:22;7.22;;;4.75;;
47259;SDS011;32999;52.412;4.890;2023-11-21T12:00:34;7.80;;;4.22;;
47259;SDS011;32999;52.412;4.890;2023-11-21T12:05:37;10.43;;;6.18;;
47259;SDS011;32999;52.412;4.890;2023-11-21T12:10:40;7.40;;;4.63;;
47259;SDS011;32999;52.412;4.890;2023-11-21T12:15:44;8.98;;;4.93;;
47259;SDS011;32999;52.412;4.890;2023-11-21T12:20:46;10.45;;;5.63;;
47259;SDS011;32999;52.412;4.890;2023-11-21T12:25:50;9.00;;;5.70;;
47259;SDS011;32999;52.412;4.890;2023-11-21T12:30:53;9.15;;;5.63;;
47259;SDS011;32999;52.412;4.890;2023-11-21T12:35:57;10.70;;;6.53;;
47259;SDS011;32999;52.412;4.890;2023-11-21T12:40:59;14.07;;;6.78;;
47259;SDS011;32999;52.412;4.890;2023-11-21T12:46:05;10.07;;;6.22;;
47259;SDS011;32999;52.412;4.890;2023-11-21T12:51:07;14.43;;;7.70;;
47259;SDS011;32999;52.412;4.890;2023-11-21T12:56:09;15.70;;;8.48;;
47259;SDS011;32999;52.412;4.890;2023-11-21T13:01:12;10.27;;;6.82;;
47259;SDS011;32999;52.412;4.890;2023-11-21T13:06:18;11.68;;;7.43;;
47259;SDS011;32999;52.412;4.890;2023-11-21T13:11:24;11.20;;;5.93;;
47259;SDS011;32999;52.412;4.890;2023-11-21T13:16:29;12.45;;;6.00;;
47259;SDS011;32999;52.412;4.890;2023-11-21T13:21:31;9.77;;;5.47;;
47259;SDS011;32999;52.412;4.890;2023-11-21T13:26:33;9.27;;;5.78;;
47259;SDS011;32999;52.412;4.890;2023-11-21T13:31:37;9.65;;;5.18;;
47259;SDS011;32999;52.412;4.890;2023-11-21T13:36:39;9.20;;;4.57;;
47259;SDS011;32999;52.412;4.890;2023-11-21T13:41:42;6.30;;;4.57;;
47259;SDS011;32999;52.412;4.890;2023-11-21T13:46:45;6.82;;;4.97;;
47259;SDS011;32999;52.412;4.890;2023-11-21T13:51:47;7.25;;;4.10;;
47259;SDS011;32999;52.412;4.890;2023-11-21T13:56:52;7.15;;;4.70;;
47259;SDS011;32999;52.412;4.890;2023-11-21T14:01:56;8.35;;;5.32;;
47259;SDS011;32999;52.412;4.890;2023-11-21T14:06:59;8.68;;;4.93;;
47259;SDS011;32999;52.412;4.890;2023-11-21T14:12:14;8.68;;;4.40;;
47259;SDS011;32999;52.412;4.890;2023-11-21T14:17:17;7.00;;;4.60;;
47259;SDS011;32999;52.412;4.890;2023-11-21T14:22:18;6.90;;;4.40;;
47259;SDS011;32999;52.412;4.890;2023-11-21T14:27:21;8.93;;;5.10;;
47259;SDS011;32999;52.412;4.890;2023-11-21T14:32:24;8.25;;;5.82;;
47259;SDS011;32999;52.412;4.890;2023-11-21T14:37:27;9.93;;;6.10;;
47259;SDS011;32999;52.412;4.890;2023-11-21T14:42:45;9.00;;;6.85;;
47259;SDS011;32999;52.412;4.890;2023-11-21T14:47:48;7.95;;;5.88;;
47259;SDS011;32999;52.412;4.890;2023-11-21T14:52:57;9.32;;;6.13;;
47259;SDS011;32999;52.412;4.890;2023-11-21T14:57:59;8.77;;;6.25;;
47259;SDS011;32999;52.412;4.890;2023-11-21T15:03:05;9.38;;;5.82;;
47259;SDS011;32999;52.412;4.890;2023-11-21T15:08:07;10.23;;;6.28;;
47259;SDS011;32999;52.412;4.890;2023-11-21T15:13:21;9.27;;;6.20;;
47259;SDS011;32999;52.412;4.890;2023-11-21T15:18:25;9.95;;;6.70;;
47259;SDS011;32999;52.412;4.890;2023-11-21T15:23:27;8.85;;;6.07;;
47259;SDS011;32999;52.412;4.890;2023-11-21T15:28:30;8.95;;;6.05;;
47259;SDS011;32999;52.412;4.890;2023-11-21T15:33:34;21.25;;;7.93;;
47259;SDS011;32999;52.412;4.890;2023-11-21T15:38:37;11.73;;;7.00;;
47259;SDS011;32999;52.412;4.890;2023-11-21T15:43:39;9.00;;;5.13;;
47259;SDS011;32999;52.412;4.890;2023-11-21T15:48:41;8.73;;;5.72;;
47259;SDS011;32999;52.412;4.890;2023-11-21T15:53:49;9.43;;;5.30;;
47259;SDS011;32999;52.412;4.890;2023-11-21T15:58:52;7.45;;;4.55;;
47259;SDS011;32999;52.412;4.890;2023-11-21T16:03:55;9.60;;;5.18;;
47259;SDS011;32999;52.412;4.890;2023-11-21T16:08:58;7.82;;;5.15;;
47259;SDS011;32999;52.412;4.890;2023-11-21T16:14:01;7.55;;;4.82;;
47259;SDS011;32999;52.412;4.890;2023-11-21T16:19:04;12.70;;;5.38;;
47259;SDS011;32999;52.412;4.890;2023-11-21T16:24:06;7.78;;;4.63;;
47259;SDS011;32999;52.412;4.890;2023-11-21T16:29:07;7.20;;;4.10;;
47259;SDS011;32999;52.412;4.890;2023-11-21T16:34:12;9.02;;;3.60;;
47259;SDS011;32999;52.412;4.890;2023-11-21T16:39:14;5.45;;;3.78;;
47259;SDS011;32999;52.412;4.890;2023-11-21T16:44:19;6.97;;;4.25;;
47259;SDS011;32999;52.412;4.890;2023-11-21T16:49:23;8.50;;;5.72;;
47259;SDS011;32999;52.412;4.890;2023-11-21T16:54:26;10.95;;;5.60;;
47259;SDS011;32999;52.412;4.890;2023-11-21T16:59:28;11.88;;;5.50;;
47259;SDS011;32999;52.412;4.890;2023-11-21T17:04:31;8.75;;;5.05;;
47259;SDS011;32999;52.412;4.890;2023-11-21T17:09:34;10.95;;;5.53;;
47259;SDS011;32999;52.412;4.890;2023-11-21T17:14:36;9.55;;;5.30;;
47259;SDS011;32999;52.412;4.890;2023-11-21T17:19:40;8.52;;;5.25;;
47259;SDS011;32999;52.412;4.890;2023-11-21T17:24:43;8.50;;;4.97;;
47259;SDS011;32999;52.412;4.890;2023-11-21T17:29:44;7.97;;;5.25;;
47259;SDS011;32999;52.412;4.890;2023-11-21T17:34:47;10.20;;;5.03;;
47259;SDS011;32999;52.412;4.890;2023-11-21T17:39:49;9.98;;;5.55;;
47259;SDS011;32999;52.412;4.890;2023-11-21T17:44:50;10.32;;;6.00;;
47259;SDS011;32999;52.412;4.890;2023-11-21T17:49:53;10.75;;;5.68;;
47259;SDS011;32999;52.412;4.890;2023-11-21T17:54:55;9.95;;;5.68;;
47259;SDS011;32999;52.412;4.890;2023-11-21T17:59:56;8.45;;;5.22;;
47259;SDS011;32999;52.412;4.890;2023-11-21T18:04:59;10.27;;;6.43;;
47259;SDS011;32999;52.412;4.890;2023-11-21T18:10:01;9.00;;;5.32;;
47259;SDS011;32999;52.412;4.890;2023-11-21T18:15:03;9.05;;;6.03;;
47259;SDS011;32999;52.412;4.890;2023-11-21T18:20:08;10.13;;;5.93;;
47259;SDS011;32999;52.412;4.890;2023-11-21T18:25:10;11.63;;;5.93;;
47259;SDS011;32999;52.412;4.890;2023-11-21T18:30:11;11.82;;;6.50;;
47259;SDS011;32999;52.412;4.890;2023-11-21T18:35:15;10.32;;;5.88;;
47259;SDS011;32999;52.412;4.890;2023-11-21T18:40:16;13.43;;;7.50;;
47259;SDS011;32999;52.412;4.890;2023-11-21T18:45:18;12.55;;;6.75;;
47259;SDS011;32999;52.412;4.890;2023-11-21T18:50:21;11.57;;;6.50;;
47259;SDS011;32999;52.412;4.890;2023-11-21T18:55:23;10.05;;;5.88;;
47259;SDS011;32999;52.412;4.890;2023-11-21T19:00:24;9.60;;;5.65;;
47259;SDS011;32999;52.412;4.890;2023-11-21T19:05:28;10.60;;;6.20;;
47259;SDS011;32999;52.412;4.890;2023-11-21T19:10:30;11.88;;;5.32;;
47259;SDS011;32999;52.412;4.890;2023-11-21T19:15:32;12.98;;;6.60;;
47259;SDS011;32999;52.412;4.890;2023-11-21T19:20:36;8.60;;;5.68;;
47259;SDS011;32999;52.412;4.890;2023-11-21T19:25:37;11.77;;;6.28;;
47259;SDS011;32999;52.412;4.890;2023-11-21T19:30:39;10.52;;;6.38;;
47259;SDS011;32999;52.412;4.890;2023-11-21T19:35:46;10.77;;;5.95;;
47259;SDS011;32999;52.412;4.890;2023-11-21T19:40:47;11.65;;;5.97;;
47259;SDS011;32999;52.412;4.890;2023-11-21T19:45:49;9.00;;;5.82;;
47259;SDS011;32999;52.412;4.890;2023-11-21T19:50:54;9.95;;;5.55;;
47259;SDS011;32999;52.412;4.890;2023-11-21T19:55:55;12.93;;;5.55;;
47259;SDS011;32999;52.412;4.890;2023-11-21T20:00:56;8.02;;;5.15;;
47259;SDS011;32999;52.412;4.890;2023-11-21T20:06:00;10.02;;;6.15;;
47259;SDS011;32999;52.412;4.890;2023-11-21T20:11:02;11.77;;;5.70;;
47259;SDS011;32999;52.412;4.890;2023-11-21T20:16:04;11.40;;;5.32;;
47259;SDS011;32999;52.412;4.890;2023-11-21T20:21:07;8.73;;;4.90;;
47259;SDS011;32999;52.412;4.890;2023-11-21T20:26:09;8.57;;;5.38;;
47259;SDS011;32999;52.412;4.890;2023-11-21T20:31:11;9.02;;;5.22;;
47259;SDS011;32999;52.412;4.890;2023-11-21T20:36:14;10.65;;;4.88;;
47259;SDS011;32999;52.412;4.890;2023-11-21T20:41:15;9.32;;;4.95;;
47259;SDS011;32999;52.412;4.890;2023-11-21T20:46:17;6.45;;;4.10;;
47259;SDS011;32999;52.412;4.890;2023-11-21T20:51:20;8.40;;;4.78;;
47259;SDS011;32999;52.412;4.890;2023-11-21T20:56:22;6.63;;;4.10;;
47259;SDS011;32999;52.412;4.890;2023-11-21T21:01:23;8.02;;;4.43;;
47259;SDS011;32999;52.412;4.890;2023-11-21T21:06:26;7.50;;;3.60;;
47259;SDS011;32999;52.412;4.890;2023-11-21T21:11:28;8.95;;;4.95;;
47259;SDS011;32999;52.412;4.890;2023-11-21T21:16:31;7.90;;;4.67;;
47259;SDS011;32999;52.412;4.890;2023-11-21T21:21:35;7.85;;;4.00;;
47259;SDS011;32999;52.412;4.890;2023-11-21T21:26:36;6.15;;;3.97;;
47259;SDS011;32999;52.412;4.890;2023-11-21T21:31:38;8.00;;;4.70;;
47259;SDS011;32999;52.412;4.890;2023-11-21T21:36:41;7.38;;;4.10;;
47259;SDS011;32999;52.412;4.890;2023-11-21T21:41:44;7.55;;;4.15;;
47259;SDS011;32999;52.412;4.890;2023-11-21T21:46:45;8.40;;;3.60;;
47259;SDS011;32999;52.412;4.890;2023-11-21T21:51:48;7.47;;;3.80;;
47259;SDS011;32999;52.412;4.890;2023-11-21T21:56:50;6.78;;;4.05;;
47259;SDS011;32999;52.412;4.890;2023-11-21T22:01:51;8.73;;;4.60;;
47259;SDS011;32999;52.412;4.890;2023-11-21T22:06:54;8.90;;;4.68;;
47259;SDS011;32999;52.412;4.890;2023-11-21T22:11:56;9.10;;;4.30;;
47259;SDS011;32999;52.412;4.890;2023-11-21T22:16:57;8.88;;;4.85;;
47259;SDS011;32999;52.412;4.890;2023-11-21T22:22:00;7.60;;;4.40;;
47259;SDS011;32999;52.412;4.890;2023-11-21T22:27:02;8.82;;;4.53;;
47259;SDS011;32999;52.412;4.890;2023-11-21T22:32:03;8.00;;;4.18;;
47259;SDS011;32999;52.412;4.890;2023-11-21T22:37:07;8.00;;;4.25;;
47259;SDS011;32999;52.412;4.890;2023-11-21T22:42:09;10.15;;;4.72;;
47259;SDS011;32999;52.412;4.890;2023-11-21T22:47:12;12.57;;;4.82;;
47259;SDS011;32999;52.412;4.890;2023-11-21T22:52:15;7.97;;;4.43;;
47259;SDS011;32999;52.412;4.890;2023-11-21T22:57:17;8.50;;;4.75;;
47259;SDS011;32999;52.412;4.890;2023-11-21T23:02:19;8.45;;;4.85;;
47259;SDS011;32999;52.412;4.890;2023-11-21T23:07:22;8.48;;;4.47;;
47259;SDS011;32999;52.412;4.890;2023-11-21T23:12:23;9.55;;;4.47;;
47259;SDS011;32999;52.412;4.890;2023-11-21T23:17:25;10.15;;;5.30;;
47259;SDS011;32999;52.412;4.890;2023-11-21T23:22:29;6.05;;;4.10;;
47259;SDS011;32999;52.412;4.890;2023-11-21T23:27:32;6.50;;;4.40;;
47259;SDS011;32999;52.412;4.890;2023-11-21T23:32:34;6.18;;;4.43;;
47259;SDS011;32999;52.412;4.890;2023-11-21T23:37:36;6.82;;;4.13;;
47259;SDS011;32999;52.412;4.890;2023-11-21T23:42:38;7.43;;;4.20;;
47259;SDS011;32999;52.412;4.890;2023-11-21T23:47:40;6.57;;;4.43;;
47259;SDS011;32999;52.412;4.890;2023-11-21T23:52:42;7.20;;;4.47;;
47259;SDS011;32999;52.412;4.890;2023-11-21T23:57:44;7.38;;;4.07;;
